Time;durP1;ratioP1;P1;durP2;ratioP2;P2;SDS_P1;SDS_P2;PMS_P1;PMS_P2;Temp;Humidity;BMP_temperature;BMP_pressure;BME280_temperature;BME280_humidity;BME280_pressure;Samples;Min_cycle;Max_cycle;Signal;HPM_P1;HPM_P2
2021/04/09 00:01:26;;;;;;;44.00;15.80;;;;;;;-0.29;75.54;99634.81;2191084;81;21340;-74
2021/04/09 00:04:28;;;;;;;46.40;16.25;;;;;;;-0.33;75.59;99640.44;2159068;81;21719;-74
2021/04/09 00:07:30;;;;;;;47.10;17.90;;;;;;;-0.31;75.72;99637.41;2191117;81;21739;-74
2021/04/09 00:10:32;;;;;;;48.13;16.62;;;;;;;-0.34;75.76;99637.42;2191491;81;21153;-74
2021/04/09 00:13:34;;;;;;;43.98;16.30;;;;;;;-0.35;75.69;99642.98;2191086;81;21179;-74
2021/04/09 00:16:36;;;;;;;46.65;16.62;;;;;;;-0.36;75.71;99645.58;2191387;81;21175;-74
2021/04/09 00:19:38;;;;;;;49.20;16.40;;;;;;;-0.38;75.87;99648.16;2191130;81;21291;-74
2021/04/09 00:22:40;;;;;;;52.43;17.35;;;;;;;-0.37;75.80;99651.62;2191169;81;21253;-74
2021/04/09 00:25:42;;;;;;;50.35;17.25;;;;;;;-0.37;75.87;99649.88;2191062;81;21328;-74
2021/04/09 00:28:44;;;;;;;47.33;17.20;;;;;;;-0.39;75.85;99646.88;2191071;81;21295;-73
2021/04/09 00:31:46;;;;;;;51.73;17.82;;;;;;;-0.40;76.08;99643.89;2159046;81;21736;-73
2021/04/09 00:34:48;;;;;;;52.65;18.65;;;;;;;-0.42;76.13;99651.61;2191044;81;21296;-74
2021/04/09 00:37:50;;;;;;;48.15;18.20;;;;;;;-0.43;75.91;99653.78;2191100;81;21282;-73
2021/04/09 00:40:52;;;;;;;52.10;19.40;;;;;;;-0.46;75.93;99654.20;2191111;81;21296;-73
2021/04/09 00:43:54;;;;;;;53.85;19.27;;;;;;;-0.50;76.03;99653.38;2191110;81;21107;-73
2021/04/09 00:46:56;;;;;;;61.15;21.12;;;;;;;-0.48;76.21;99650.78;2191187;81;21284;-73
2021/04/09 00:49:58;;;;;;;53.38;20.95;;;;;;;-0.46;76.28;99647.35;2191126;81;21145;-73
2021/04/09 00:53:00;;;;;;;54.35;20.68;;;;;;;-0.46;76.15;99643.48;2191106;81;21261;-74
2021/04/09 00:56:02;;;;;;;53.42;19.35;;;;;;;-0.48;76.04;99643.90;2191429;81;21185;-74
2021/04/09 00:59:04;;;;;;;53.80;20.68;;;;;;;-0.49;76.25;99651.20;2191120;81;21304;-74
2021/04/09 01:02:05;;;;;;;57.03;20.23;;;;;;;-0.51;76.01;99643.91;2190832;81;21291;-74
2021/04/09 01:05:07;;;;;;;51.58;19.80;;;;;;;-0.54;76.12;99649.08;2190751;81;21762;-74
2021/04/09 01:08:09;;;;;;;53.48;19.40;;;;;;;-0.54;75.77;99643.93;2190756;81;21584;-73
2021/04/09 01:11:11;;;;;;;50.38;18.55;;;;;;;-0.55;75.88;99643.49;2191133;81;21291;-74
2021/04/09 01:14:13;;;;;;;50.00;18.82;;;;;;;-0.53;75.70;99643.92;2190715;81;21153;-74
2021/04/09 01:17:15;;;;;;;52.40;19.42;;;;;;;-0.53;75.71;99648.23;2190771;81;21149;-74
2021/04/09 01:20:17;;;;;;;50.55;19.48;;;;;;;-0.51;75.58;99646.49;2190753;81;21129;-74
2021/04/09 01:23:19;;;;;;;54.27;19.77;;;;;;;-0.49;75.56;99641.33;2190816;81;21138;-74
2021/04/09 01:26:21;;;;;;;53.65;20.90;;;;;;;-0.51;75.39;99651.65;2190774;81;21578;-74
2021/04/09 01:29:23;;;;;;;66.82;22.07;;;;;;;-0.51;75.36;99647.78;2190728;81;21636;-74
2021/04/09 01:32:25;;;;;;;61.83;21.85;;;;;;;-0.51;75.34;99649.06;2190677;81;21166;-74
2021/04/09 01:35:27;;;;;;;56.28;21.20;;;;;;;-0.54;75.08;99652.51;2191057;81;21342;-74
2021/04/09 01:38:29;;;;;;;54.42;19.95;;;;;;;-0.53;75.20;99645.21;2190750;81;21185;-74
2021/04/09 01:41:31;;;;;;;58.83;20.97;;;;;;;-0.50;75.03;99644.35;2190724;81;21165;-73
2021/04/09 01:44:34;;;;;;;60.40;21.62;;;;;;;-0.55;74.92;99644.78;2190611;81;21142;-73
2021/04/09 01:47:36;;;;;;;;;;;;;;;-0.57;75.03;99640.08;2193265;81;21149;-74
2021/04/09 01:50:38;;;;;;;58.20;21.35;;;;;;;-0.58;74.99;99636.62;2190586;81;20137;-74
2021/04/09 01:53:40;;;;;;;64.55;22.82;;;;;;;-0.64;74.95;99639.22;2190884;81;21268;-73
2021/04/09 01:56:42;;;;;;;58.48;22.20;;;;;;;-0.65;75.07;99643.94;2190952;81;21141;-74
2021/04/09 01:59:44;;;;;;;56.15;22.07;;;;;;;-0.66;75.30;99639.67;2190861;81;21299;-73
2021/04/09 02:02:46;;;;;;;63.35;22.02;;;;;;;-0.72;75.25;99634.51;2191114;81;21292;-74
2021/04/09 02:05:48;;;;;;;56.02;21.62;;;;;;;-0.71;75.58;99636.23;2159206;81;21289;-74
2021/04/09 02:08:50;;;;;;;56.75;22.05;;;;;;;-0.68;75.52;99634.09;2191608;81;21275;-73
2021/04/09 02:11:52;;;;;;;57.08;23.00;;;;;;;-0.71;75.45;99630.64;2191533;81;21150;-74
2021/04/09 02:14:56;;;;;;;60.03;23.42;;;;;;;-0.70;75.62;99631.08;2191208;81;21723;-74
2021/04/09 02:17:58;;;;;;;61.53;23.55;;;;;;;-0.68;75.62;99631.52;2191135;81;21736;-74
2021/04/09 02:21:00;;;;;;;70.37;25.62;;;;;;;-0.70;75.70;99632.80;2191231;81;21288;-74
2021/04/09 02:24:02;;;;;;;63.15;24.25;;;;;;;-0.66;75.61;99630.66;2191561;81;21153;-73
2021/04/09 02:27:04;;;;;;;67.25;26.30;;;;;;;-0.64;75.63;99632.78;2191771;81;21150;-74
2021/04/09 02:30:06;;;;;;;64.32;26.42;;;;;;;-0.66;75.76;99637.09;2191244;81;21281;-74
2021/04/09 02:33:09;;;;;;;76.87;27.95;;;;;;;-0.67;75.87;99635.81;2191232;81;21157;-74
2021/04/09 02:36:11;;;;;;;75.97;30.52;;;;;;;-0.72;75.89;99634.51;2191262;81;21321;-74
2021/04/09 02:39:13;;;;;;;84.65;31.42;;;;;;;-0.73;75.97;99634.95;2191251;81;21312;-73
2021/04/09 02:42:15;;;;;;;74.65;30.00;;;;;;;-0.75;76.13;99630.25;2191176;81;21308;-73
2021/04/09 02:45:20;;;;;;;81.70;32.25;;;;;;;-0.78;76.29;99629.38;2191314;81;21142;-74
2021/04/09 02:48:24;;;;;;;92.40;35.38;;;;;;;-0.81;76.35;99629.39;2191077;81;21149;-74
2021/04/09 02:51:28;;;;;;;80.45;34.40;;;;;;;-0.85;76.56;99619.50;2158941;81;21276;-73
2021/04/09 02:54:30;;;;;;;90.67;35.45;;;;;;;-0.83;76.59;99623.36;2191246;81;21280;-74
2021/04/09 02:57:33;;;;;;;82.00;35.03;;;;;;;-0.82;76.81;99622.10;2191221;81;21276;-74
2021/04/09 03:00:35;;;;;;;88.35;36.15;;;;;;;-0.86;76.70;99624.25;2191040;81;21720;-73
2021/04/09 03:03:37;;;;;;;85.65;35.23;;;;;;;-0.85;76.77;99619.50;2191055;81;21137;-74
2021/04/09 03:06:39;;;;;;;85.40;35.00;;;;;;;-0.83;76.76;99615.23;2190836;81;21284;-74
2021/04/09 03:09:41;;;;;;;86.78;35.38;;;;;;;-0.85;76.81;99619.95;2190796;81;21173;-74
2021/04/09 03:12:45;;;;;;;86.02;34.00;;;;;;;-0.86;76.81;99625.54;2191201;81;21133;-73
2021/04/09 03:15:47;;;;;;;77.00;32.75;;;;;;;-0.84;76.79;99629.40;2190948;81;21174;-74
2021/04/09 03:18:49;;;;;;;98.72;34.58;;;;;;;-0.86;76.79;99628.12;2191183;81;21268;-73
2021/04/09 03:21:51;;;;;;;82.80;33.53;;;;;;;-0.90;76.82;99626.41;2190777;81;21308;-73
2021/04/09 03:24:53;;;;;;;88.75;33.98;;;;;;;-0.89;76.64;99628.97;2190841;81;21130;-73
2021/04/09 03:27:59;;;;;;;77.35;30.52;;;;;;;-0.88;76.58;99633.27;2190961;81;21299;-73
2021/04/09 03:31:01;;;;;;;81.67;32.75;;;;;;;-0.88;76.57;99627.24;2190703;81;21154;-74
2021/04/09 03:34:03;;;;;;;82.30;30.68;;;;;;;-0.82;76.55;99626.38;2190844;81;21162;-73
2021/04/09 03:37:06;;;;;;;88.52;34.03;;;;;;;-0.85;76.36;99620.80;2190939;81;21311;-73
2021/04/09 03:40:08;;;;;;;76.50;32.15;;;;;;;-0.87;76.36;99618.22;2190730;81;21770;-74
2021/04/09 03:43:10;;;;;;;78.92;31.68;;;;;;;-0.86;76.30;99613.95;2190843;81;21292;-73
2021/04/09 03:46:12;;;;;;;82.30;31.42;;;;;;;-0.91;76.07;99616.51;2191096;81;21311;-74
2021/04/09 03:49:13;;;;;;;71.95;31.05;;;;;;;-0.89;76.29;99612.64;2190795;81;21276;-74
2021/04/09 03:52:15;;;;;;;70.92;30.70;;;;;;;-0.85;76.29;99614.35;2190741;81;21594;-73
2021/04/09 03:55:18;;;;;;;77.53;29.12;;;;;;;-0.89;76.16;99613.52;2190740;81;21165;-73
2021/04/09 03:58:20;;;;;;;68.42;28.20;;;;;;;-0.84;76.12;99618.66;2190937;81;21161;-73
2021/04/09 04:01:24;;;;;;;69.12;28.07;;;;;;;-0.83;76.00;99611.36;2190935;81;21304;-73
2021/04/09 04:04:26;;;;;;;74.15;28.90;;;;;;;-0.81;75.84;99611.36;2191164;81;21268;-73
2021/04/09 04:07:28;;;;;;;67.67;28.05;;;;;;;-0.84;75.93;99612.22;2191136;81;21138;-74
2021/04/09 04:10:30;;;;;;;74.10;29.90;;;;;;;-0.83;75.84;99612.66;2191235;81;21728;-73
2021/04/09 04:13:32;;;;;;;74.82;26.70;;;;;;;-0.88;75.72;99610.09;2191123;81;21296;-73
2021/04/09 04:16:34;;;;;;;71.53;27.02;;;;;;;-0.92;75.86;99608.78;2191065;81;21295;-73
2021/04/09 04:19:37;;;;;;;;;;;;;;;-0.92;75.83;99612.66;2193613;81;21276;-73
2021/04/09 04:22:39;;;;;;;74.72;29.65;;;;;;;-0.89;75.87;99611.35;2191253;81;20516;-73
2021/04/09 04:25:42;;;;;;;69.40;30.43;;;;;;;-0.85;75.85;99607.91;2190975;81;21157;-73
2021/04/09 04:28:44;;;;;;;70.40;28.07;;;;;;;-0.81;75.66;99607.05;2191143;81;21182;-73
2021/04/09 04:31:46;;;;;;;75.15;27.00;;;;;;;-0.76;75.66;99604.05;2191070;81;21728;-73
2021/04/09 04:34:48;;;;;;;68.25;25.60;;;;;;;-0.68;75.52;99607.88;2191427;81;21165;-74
2021/04/09 04:37:50;;;;;;;65.00;24.40;;;;;;;-0.58;75.33;99605.70;2191100;81;21272;-73
2021/04/09 04:40:52;;;;;;;62.60;25.27;;;;;;;-0.45;75.11;99610.38;2191057;81;21597;-73
2021/04/09 04:43:54;;;;;;;63.05;25.32;;;;;;;-0.33;74.98;99602.17;2191499;81;21173;-74
2021/04/09 04:46:56;;;;;;;57.10;23.30;;;;;;;-0.24;74.64;99607.31;2191460;81;21150;-73
2021/04/09 04:49:58;;;;;;;57.58;24.57;;;;;;;-0.11;74.47;99608.11;2191341;81;21320;-73
2021/04/09 04:53:01;;;;;;;67.37;24.07;;;;;;;-0.02;74.29;99608.89;2191096;81;21276;-73
2021/04/09 04:56:03;;;;;;;61.13;23.30;;;;;;;0.11;74.10;99606.25;2191182;81;21744;-73
2021/04/09 04:59:05;;;;;;;58.90;23.80;;;;;;;0.28;73.97;99612.61;2191119;81;21308;-73
2021/04/09 05:02:07;;;;;;;53.35;21.73;;;;;;;0.43;73.68;99606.47;2190911;81;21335;-73
2021/04/09 05:05:09;;;;;;;56.85;20.95;;;;;;;0.55;73.17;99604.22;2190872;81;21652;-72
2021/04/09 05:08:12;;;;;;;52.33;20.75;;;;;;;0.69;72.89;99605.00;2190563;81;21268;-73
2021/04/09 05:11:14;;;;;;;49.85;19.07;;;;;;;0.85;72.75;99597.52;2190746;81;21157;-72
2021/04/09 05:14:16;;;;;;;49.35;20.45;;;;;;;1.01;72.36;99610.31;2190828;81;21573;-73
2021/04/09 05:17:18;;;;;;;52.53;19.27;;;;;;;1.20;72.53;99600.64;2190793;81;21165;-73
2021/04/09 05:20:20;;;;;;;49.25;19.12;;;;;;;1.38;71.71;99597.02;2190721;81;21138;-72
2021/04/09 05:23:22;;;;;;;52.13;18.25;;;;;;;1.57;71.92;99597.64;2190838;81;21118;-72
2021/04/09 05:26:24;;;;;;;47.65;18.60;;;;;;;1.79;71.65;99599.52;2190855;81;21600;-72
2021/04/09 05:29:26;;;;;;;46.10;18.30;;;;;;;1.95;70.38;99597.58;2191291;81;21704;-72
2021/04/09 05:32:28;;;;;;;46.00;17.98;;;;;;;2.08;69.82;99594.38;2163106;81;21291;-72
2021/04/09 05:35:30;;;;;;;48.70;17.62;;;;;;;2.21;69.30;99588.59;2191177;81;21300;-72
2021/04/09 05:38:32;;;;;;;43.50;16.85;;;;;;;2.30;68.53;99594.08;2190953;81;21137;-72
2021/04/09 05:41:34;;;;;;;39.55;15.38;;;;;;;2.40;68.33;99588.75;2162927;81;21727;-72
2021/04/09 05:44:36;;;;;;;38.35;15.83;;;;;;;2.51;67.49;99601.52;2163004;81;21288;-72
2021/04/09 05:47:38;;;;;;;37.65;14.73;;;;;;;2.66;67.43;99590.07;2190920;81;21304;-72
2021/04/09 05:50:40;;;;;;;44.98;17.82;;;;;;;2.76;67.05;99590.78;2191260;81;21291;-72
2021/04/09 05:53:43;;;;;;;38.48;15.05;;;;;;;2.93;67.17;99590.04;2162910;81;21625;-72
2021/04/09 05:56:45;;;;;;;38.40;15.35;;;;;;;3.10;67.04;99592.75;2191308;81;21308;-72
2021/04/09 05:59:48;;;;;;;38.48;15.10;;;;;;;3.24;66.53;99596.40;2162982;81;21110;-72
2021/04/09 06:02:50;;;;;;;40.83;15.90;;;;;;;3.38;65.62;99596.99;2191072;81;21293;-72
2021/04/09 06:05:52;;;;;;;40.70;16.12;;;;;;;3.56;65.30;99590.60;2191275;81;21260;-73
2021/04/09 06:08:54;;;;;;;31.73;13.08;;;;;;;3.68;66.02;99596.40;2191232;81;21173;-72
2021/04/09 06:11:58;;;;;;;37.53;13.00;;;;;;;3.84;64.64;99593.07;2191239;81;21588;-72
2021/04/09 06:15:00;;;;;;;35.17;12.65;;;;;;;3.97;63.71;99590.61;2191129;81;21300;-73
2021/04/09 06:18:01;;;;;;;33.75;13.25;;;;;;;4.15;63.58;99586.73;2159238;81;21748;-72
2021/04/09 06:21:03;;;;;;;36.80;13.00;;;;;;;4.27;63.01;99583.03;2191227;81;21759;-72
2021/04/09 06:24:05;;;;;;;35.73;13.05;;;;;;;4.41;61.67;99580.97;2191300;81;21272;-73
2021/04/09 06:27:07;;;;;;;35.90;13.62;;;;;;;4.54;62.60;99576.75;2191374;81;21291;-72
2021/04/09 06:30:11;;;;;;;33.60;12.60;;;;;;;4.69;63.14;99577.69;2191067;81;21328;-72
2021/04/09 06:33:13;;;;;;;39.92;17.48;;;;;;;4.78;61.26;99574.84;2191251;81;21740;-72
2021/04/09 06:36:15;;;;;;;35.88;13.83;;;;;;;4.88;62.02;99574.63;2191179;81;21752;-73
2021/04/09 06:39:17;;;;;;;36.20;13.20;;;;;;;5.02;60.28;99565.56;2191702;81;21157;-73
2021/04/09 06:42:19;;;;;;;34.85;12.70;;;;;;;5.15;61.45;99572.59;2191221;81;21315;-73
2021/04/09 06:45:21;;;;;;;28.12;10.50;;;;;;;5.26;60.31;99565.81;2191591;81;21296;-73
2021/04/09 06:48:24;;;;;;;28.20;9.90;;;;;;;5.37;60.62;99565.07;2191337;81;21304;-73
2021/04/09 06:51:26;;;;;;;26.87;9.05;;;;;;;5.46;58.43;99560.05;2191197;81;21557;-72
2021/04/09 06:54:28;;;;;;;27.73;9.68;;;;;;;5.54;59.56;99571.08;2191190;81;21130;-72
2021/04/09 06:57:30;;;;;;;26.57;9.83;;;;;;;5.67;59.05;99557.72;2191072;81;21749;-72
2021/04/09 07:00:33;;;;;;;26.45;8.33;;;;;;;5.86;59.53;99564.09;2191308;81;21720;-73
2021/04/09 07:03:35;;;;;;;26.52;8.78;;;;;;;6.02;58.85;99552.80;2190933;81;21328;-72
2021/04/09 07:06:37;;;;;;;25.80;9.43;;;;;;;6.16;57.49;99554.11;2190877;81;21300;-72
2021/04/09 07:09:39;;;;;;;25.40;9.18;;;;;;;6.37;58.32;99557.80;2190856;81;21273;-72
2021/04/09 07:12:41;;;;;;;27.25;9.10;;;;;;;6.47;58.39;99560.51;2191071;81;21300;-72
2021/04/09 07:15:45;;;;;;;23.90;7.75;;;;;;;6.71;56.90;99557.98;2190933;81;21617;-73
2021/04/09 07:18:47;;;;;;;24.45;7.55;;;;;;;6.78;55.58;99553.42;2190744;81;21299;-72
2021/04/09 07:21:49;;;;;;;22.22;6.50;;;;;;;6.99;56.26;99551.38;2190938;81;21748;-72
2021/04/09 07:24:51;;;;;;;22.32;6.15;;;;;;;7.17;55.47;99539.47;2190816;81;21319;-72
2021/04/09 07:27:53;;;;;;;22.22;6.00;;;;;;;7.26;53.94;99523.93;2190895;81;21284;-72
2021/04/09 07:30:56;;;;;;;20.50;5.90;;;;;;;7.39;55.14;99532.16;2190824;81;21284;-72
2021/04/09 07:33:59;;;;;;;19.45;6.15;;;;;;;7.50;52.68;99532.62;2190774;81;21617;-72
2021/04/09 07:37:01;;;;;;;23.27;6.10;;;;;;;7.65;53.45;99532.95;2190931;81;21756;-72
2021/04/09 07:40:03;;;;;;;21.93;6.30;;;;;;;7.83;53.44;99528.78;2190796;81;21300;-72
2021/04/09 07:43:05;;;;;;;22.70;6.15;;;;;;;7.95;50.90;99518.70;2191009;81;21277;-72
2021/04/09 07:46:08;;;;;;;23.65;6.03;;;;;;;8.12;53.30;99518.52;2191160;81;21296;-72
2021/04/09 07:49:10;;;;;;;20.55;5.90;;;;;;;8.14;52.10;99515.38;2190742;81;21138;-72
2021/04/09 07:52:12;;;;;;;21.05;5.60;;;;;;;8.27;49.26;99511.34;2190769;81;21249;-72
2021/04/09 07:55:15;;;;;;;22.25;5.85;;;;;;;8.42;51.02;99511.63;2190782;81;21613;-72
2021/04/09 07:58:17;;;;;;;21.37;5.60;;;;;;;8.62;50.83;99505.60;2190969;81;21281;-72
2021/04/09 08:01:19;;;;;;;19.45;4.80;;;;;;;8.74;49.55;99502.95;2190777;81;21291;-72
2021/04/09 08:04:21;;;;;;;19.07;5.35;;;;;;;8.77;47.12;99487.12;2191103;81;21752;-72
2021/04/09 08:07:23;;;;;;;23.22;6.22;;;;;;;8.58;49.41;99497.05;2191031;81;21700;-72
2021/04/09 08:10:25;;;;;;;23.98;5.75;;;;;;;8.74;49.71;99492.02;2191170;81;21316;-72
2021/04/09 08:13:27;;;;;;;19.57;5.40;;;;;;;8.98;46.31;99494.03;2158925;81;21292;-72
2021/04/09 08:16:29;;;;;;;18.12;4.85;;;;;;;8.68;46.34;99479.21;2191295;81;21753;-72
2021/04/09 08:19:31;;;;;;;18.73;5.80;;;;;;;8.73;45.92;99475.08;2191205;81;21736;-72
2021/04/09 08:22:33;;;;;;;18.65;4.58;;;;;;;8.59;45.77;99479.59;2191102;81;21272;-72
2021/04/09 08:25:35;;;;;;;18.55;5.17;;;;;;;8.31;44.35;99487.25;2191134;81;21292;-72
2021/04/09 08:28:37;;;;;;;18.07;5.33;;;;;;;8.25;45.12;99480.51;2191164;81;21280;-72
2021/04/09 08:31:39;;;;;;;19.70;5.58;;;;;;;8.41;44.27;99462.42;2191117;81;21283;-72
2021/04/09 08:34:41;;;;;;;20.82;5.80;;;;;;;8.21;44.50;99473.70;2191089;81;21308;-72
2021/04/09 08:37:43;;;;;;;22.52;5.28;;;;;;;8.41;45.43;99472.05;2191108;81;21268;-73
2021/04/09 08:40:45;;;;;;;20.95;5.83;;;;;;;8.73;45.35;99469.38;2191431;81;21158;-72
2021/04/09 08:43:47;;;;;;;21.80;5.58;;;;;;;9.02;43.79;99446.33;2191230;81;21272;-72
2021/04/09 08:46:49;;;;;;;20.68;6.12;;;;;;;9.16;43.49;99458.80;2191407;81;21166;-72
2021/04/09 08:49:51;;;;;;;20.20;5.45;;;;;;;9.17;43.83;99448.73;2191056;81;21636;-72
2021/04/09 08:52:53;;;;;;;18.80;5.90;;;;;;;9.22;41.16;99455.89;2191123;81;21597;-72
2021/04/09 08:55:55;;;;;;;21.48;6.55;;;;;;;9.25;40.82;99454.47;2191088;81;21166;-72
2021/04/09 08:58:57;;;;;;;22.13;6.03;;;;;;;9.41;44.26;99445.45;2191138;81;21609;-72
2021/04/09 09:01:59;;;;;;;20.40;5.85;;;;;;;9.52;42.49;99430.53;2191054;81;21756;-72
2021/04/09 09:05:01;;;;;;;20.43;5.85;;;;;;;9.29;42.51;99432.91;2192811;81;21308;-72
2021/04/09 09:08:04;;;;;;;20.48;6.30;;;;;;;9.38;42.54;99435.56;2164749;81;21300;-72
2021/04/09 09:11:06;;;;;;;22.93;7.47;;;;;;;9.33;41.38;99417.46;2192962;81;21281;-72
2021/04/09 09:14:09;;;;;;;26.52;9.98;;;;;;;9.22;42.62;99421.87;2192784;81;21725;-72
2021/04/09 09:17:11;;;;;;;22.87;6.58;;;;;;;9.62;41.02;99416.08;2192664;81;21303;-72
2021/04/09 09:20:13;;;;;;;21.48;6.60;;;;;;;9.91;42.00;99417.75;2192966;81;21709;-73
2021/04/09 09:23:15;;;;;;;23.80;6.25;;;;;;;10.20;41.49;99415.02;2192743;81;21270;-72
2021/04/09 09:26:17;;;;;;;18.42;5.90;;;;;;;10.03;38.00;99409.77;2192764;81;21276;-72
2021/04/09 09:29:20;;;;;;;23.92;6.60;;;;;;;9.67;36.18;99427.67;2192853;81;21716;-73
2021/04/09 09:32:22;;;;;;;22.62;7.08;;;;;;;9.36;38.28;99427.78;2192782;81;21289;-72
2021/04/09 09:35:24;;;;;;;21.40;7.05;;;;;;;9.63;41.76;99410.40;2192715;81;21312;-72
2021/04/09 09:38:26;;;;;;;19.05;5.78;;;;;;;10.00;40.28;99400.75;2192734;81;21276;-72
2021/04/09 09:41:28;;;;;;;20.80;6.67;;;;;;;10.36;41.32;99399.39;2192647;81;21756;-72
2021/04/09 09:44:30;;;;;;;21.30;7.05;;;;;;;10.51;40.04;99390.35;2192656;81;21141;-73
2021/04/09 09:47:32;;;;;;;22.50;7.33;;;;;;;10.68;39.71;99374.57;2192768;81;21299;-72
2021/04/09 09:50:34;;;;;;;23.20;6.00;;;;;;;10.78;39.89;99388.06;2164793;81;21284;-72
2021/04/09 09:53:36;;;;;;;22.13;6.97;;;;;;;10.62;39.35;99372.28;2193104;81;21292;-72
2021/04/09 09:56:38;;;;;;;20.55;6.17;;;;;;;10.65;40.31;99376.05;2193056;81;21303;-73
2021/04/09 09:59:40;;;;;;;20.00;6.33;;;;;;;10.91;40.91;99372.51;2192716;81;21292;-72
2021/04/09 10:02:42;;;;;;;18.32;5.97;;;;;;;11.07;38.51;99356.77;2192585;81;21308;-73
2021/04/09 10:05:44;;;;;;;23.27;6.10;;;;;;;11.06;40.57;99359.88;2191428;81;21170;-72
2021/04/09 10:08:46;;;;;;;20.02;5.67;;;;;;;11.22;37.64;99367.76;2191019;81;21296;-72
2021/04/09 10:11:48;;;;;;;20.77;6.22;;;;;;;11.18;38.40;99333.88;2191327;81;21288;-72
2021/04/09 10:14:50;;;;;;;19.50;5.67;;;;;;;11.42;38.45;99340.39;2159147;81;21134;-72
2021/04/09 10:17:52;;;;;;;18.60;5.95;;;;;;;11.58;37.29;99335.59;2191359;81;21283;-72
2021/04/09 10:20:54;;;;;;;20.37;5.53;;;;;;;11.82;39.07;99323.27;2191305;81;21165;-72
2021/04/09 10:23:56;;;;;;;20.60;6.03;;;;;;;11.75;35.56;99318.82;2191312;81;21720;-72
2021/04/09 10:26:58;;;;;;;19.67;6.22;;;;;;;11.73;36.72;99323.33;2191241;81;21320;-72
2021/04/09 10:30:01;;;;;;;25.25;7.20;;;;;;;11.75;38.54;99319.69;2191086;81;21285;-72
2021/04/09 10:33:03;;;;;;;22.65;6.00;;;;;;;12.06;38.09;99313.13;2191272;81;21280;-72
2021/04/09 10:36:05;;;;;;;22.60;6.22;;;;;;;12.00;36.34;99285.90;2191351;81;21312;-72
2021/04/09 10:39:07;;;;;;;22.60;6.10;;;;;;;11.82;36.75;99306.19;2159047;81;21304;-72
2021/04/09 10:42:10;;;;;;;18.82;5.45;;;;;;;11.94;36.48;99294.52;2191230;81;21118;-72
2021/04/09 10:45:12;;;;;;;19.15;5.70;;;;;;;11.58;38.51;99299.64;2191237;81;21170;-72
2021/04/09 10:48:16;;;;;;;20.32;6.87;;;;;;;12.04;36.95;99287.38;2191739;81;21106;-72
2021/04/09 10:51:18;;;;;;;21.23;6.53;;;;;;;12.35;38.34;99294.75;2191306;81;21307;-72
2021/04/09 10:54:20;;;;;;;22.10;6.65;;;;;;;12.29;36.57;99293.34;2191173;81;21351;-72
2021/04/09 10:57:22;;;;;;;20.52;6.00;;;;;;;12.43;37.57;99278.04;2158913;81;21304;-72
2021/04/09 11:00:24;;;;;;;20.10;6.05;;;;;;;12.67;37.34;99280.94;2191548;81;21150;-72
2021/04/09 11:03:26;;;;;;;18.00;5.20;;;;;;;13.01;36.73;99280.11;2191350;81;21166;-73
2021/04/09 11:06:28;;;;;;;18.98;5.92;;;;;;;13.11;35.96;99254.03;2190886;81;21240;-72
2021/04/09 11:09:30;;;;;;;21.17;7.45;;;;;;;13.11;35.97;99273.30;2191243;81;21287;-72
2021/04/09 11:12:32;;;;;;;20.48;5.78;;;;;;;13.17;35.48;99272.93;2190859;81;21315;-72
2021/04/09 11:15:34;;;;;;;20.82;6.00;;;;;;;13.40;36.30;99263.17;2190835;81;21308;-72
2021/04/09 11:18:36;;;;;;;19.92;5.37;;;;;;;13.65;34.50;99254.50;2191227;81;21114;-72
2021/04/09 11:21:38;;;;;;;20.20;5.67;;;;;;;13.51;35.73;99268.10;2190858;81;21291;-72
2021/04/09 11:24:40;;;;;;;17.77;4.60;;;;;;;13.63;34.31;99261.20;2190974;81;21133;-72
2021/04/09 11:27:44;;;;;;;16.52;4.80;;;;;;;13.77;35.23;99249.70;2190840;81;21280;-72
2021/04/09 11:30:46;;;;;;;15.18;4.70;;;;;;;13.81;32.90;99249.03;2190617;81;21217;-72
2021/04/09 11:33:48;;;;;;;;;;;;;;;13.91;34.28;99244.83;2193386;81;21708;-72
2021/04/09 11:36:50;;;;;;;21.82;6.50;;;;;;;13.65;34.71;99250.55;2190863;81;20137;-72
2021/04/09 11:39:53;;;;;;;;;;;;;;;13.34;33.13;99240.22;2193284;81;21122;-72
2021/04/09 11:42:54;;;;;;;16.50;5.17;;;;;;;13.41;35.59;99249.89;2190918;81;20141;-72
2021/04/09 11:45:57;;;;;;;20.32;6.00;;;;;;;13.53;33.63;99233.73;2190802;81;21267;-72
2021/04/09 11:49:00;;;;;;;20.12;6.10;;;;;;;13.63;34.93;99235.29;2190841;81;21161;-72
2021/04/09 11:52:03;;;;;;;;;;;;;;;13.96;34.07;99232.63;2193309;81;21320;-72
2021/04/09 11:55:05;;;;;;;22.90;6.97;;;;;;;14.11;33.74;99215.76;2190679;81;20156;-72
2021/04/09 11:58:09;;;;;;;19.45;5.47;;;;;;;13.98;32.21;99198.63;2190975;81;21142;-72
2021/04/09 12:01:11;;;;;;;19.12;5.40;;;;;;;14.04;32.94;99217.13;2190709;81;21758;-73
2021/04/09 12:04:13;;;;;;;22.30;7.60;;;;;;;14.10;33.27;99217.19;2190961;81;21744;-72
2021/04/09 12:07:15;;;;;;;18.87;5.30;;;;;;;13.83;33.17;99218.98;2191140;81;21284;-72
2021/04/09 12:10:17;;;;;;;23.35;6.53;;;;;;;13.95;32.67;99202.80;2191140;81;21307;-72
2021/04/09 12:13:19;;;;;;;19.32;5.45;;;;;;;13.93;32.44;99204.67;2191250;81;21720;-73
2021/04/09 12:16:21;;;;;;;18.37;5.35;;;;;;;13.65;32.22;99196.03;2191206;81;21737;-73
2021/04/09 12:19:23;;;;;;;17.07;4.70;;;;;;;13.59;32.39;99199.09;2192017;81;21288;-72
2021/04/09 12:22:25;;;;;;;18.82;5.50;;;;;;;13.59;32.86;99189.86;2158937;81;21264;-73
2021/04/09 12:25:27;;;;;;;;;;;;;;;13.75;33.39;99166.39;2161358;81;21747;-72
2021/04/09 12:28:29;;;;;;;22.40;7.00;;;;;;;14.02;32.75;99163.63;2159091;81;20509;-72
2021/04/09 12:31:31;;;;;;;17.37;4.70;;;;;;;14.07;33.10;99159.38;2191104;81;21743;-72
2021/04/09 12:34:33;;;;;;;21.73;5.95;;;;;;;14.10;33.30;99154.72;2191074;81;21751;-72
2021/04/09 12:37:35;;;;;;;;;;;;;;;14.34;33.74;99158.73;2193696;81;21386;-72
2021/04/09 12:40:38;;;;;;;18.52;5.62;;;;;;;14.66;32.32;99138.93;2191087;81;20236;-72
2021/04/09 12:43:40;;;;;;;20.20;5.45;;;;;;;14.28;32.55;99157.00;2191214;81;21288;-72
2021/04/09 12:46:42;;;;;;;18.90;5.33;;;;;;;14.17;32.97;99136.67;2191096;81;21296;-72
2021/04/09 12:49:44;;;;;;;20.70;5.30;;;;;;;14.61;33.34;99137.92;2191174;81;21292;-73
2021/04/09 12:52:46;;;;;;;20.20;5.45;;;;;;;14.88;32.74;99139.05;2191060;81;21311;-72
2021/04/09 12:55:49;;;;;;;17.80;4.90;;;;;;;14.96;31.81;99131.86;2190831;81;21144;-73
2021/04/09 12:58:51;;;;;;;18.80;4.70;;;;;;;14.89;30.44;99124.86;2191409;81;21716;-72
2021/04/09 13:01:53;;;;;;;16.45;5.08;;;;;;;14.45;29.73;99126.31;2191109;81;21145;-73
2021/04/09 13:04:55;;;;;;;;;;;;;;;14.23;32.46;99123.03;2194436;81;21296;-73
2021/04/09 13:07:57;;;;;;;19.62;5.00;;;;;;;14.49;32.77;99125.11;2164608;81;20408;-73
2021/04/09 13:10:59;;;;;;;16.30;4.95;;;;;;;14.61;31.67;99116.80;2192760;81;21308;-73
2021/04/09 13:14:01;;;;;;;19.30;4.87;;;;;;;14.76;31.37;99120.62;2193143;81;21304;-72
2021/04/09 13:17:03;;;;;;;20.57;6.85;;;;;;;14.80;31.89;99100.96;2192732;81;21308;-73
2021/04/09 13:20:05;;;;;;;23.83;5.67;;;;;;;15.03;32.59;99105.36;2192666;81;21146;-72
2021/04/09 13:23:07;;;;;;;17.77;5.00;;;;;;;15.31;32.10;99102.42;2193117;81;21277;-72
2021/04/09 13:26:10;;;;;;;19.23;5.92;;;;;;;15.30;31.56;99100.73;2192745;81;21597;-72
2021/04/09 13:29:12;;;;;;;18.65;5.70;;;;;;;15.23;31.21;99103.85;2193015;81;21284;-73
2021/04/09 13:32:14;;;;;;;18.40;5.22;;;;;;;15.38;31.11;99101.00;2192847;81;21697;-73
2021/04/09 13:35:15;;;;;;;23.73;7.05;;;;;;;15.25;30.19;99098.45;2192747;81;21318;-72
2021/04/09 13:38:18;;;;;;;26.25;6.97;;;;;;;15.14;31.76;99094.45;2192653;81;21287;-73
2021/04/09 13:41:20;;;;;;;17.82;5.20;;;;;;;15.17;31.16;99103.46;2192868;81;21752;-72
2021/04/09 13:44:22;;;;;;;20.57;6.33;;;;;;;14.64;31.74;99090.66;2192770;81;21276;-73
2021/04/09 13:47:24;;;;;;;18.82;5.40;;;;;;;14.42;30.98;99085.60;2192813;81;21744;-72
2021/04/09 13:50:26;;;;;;;17.85;5.78;;;;;;;14.56;30.81;99086.76;2192973;81;21714;-73
2021/04/09 13:53:28;;;;;;;17.65;5.00;;;;;;;14.71;31.09;99094.08;2192980;81;21154;-73
2021/04/09 13:56:30;;;;;;;19.07;5.12;;;;;;;14.86;30.64;99087.30;2192924;81;21332;-73
2021/04/09 13:59:32;;;;;;;17.45;4.90;;;;;;;14.95;31.06;99077.84;2192887;81;21787;-70
2021/04/09 14:02:34;;;;;;;;;;;;;;;14.93;30.39;99077.95;2195442;81;21723;-71
2021/04/09 14:05:36;;;;;;;18.90;5.60;;;;;;;15.03;30.55;99071.02;2191717;81;20505;-72
2021/04/09 14:08:38;;;;;;;18.48;5.42;;;;;;;15.12;30.45;99066.00;2191754;81;21141;-71